Weather at Teterboro Airport

Public forecast

Using degrees Fahrenheit for public forecast. Weather courtesy of forecast.io.

Current aviation weather report (METAR) for Teterboro Airport

2024/05/25 04:51 (retrieved 45 minutes ago)

KTEB 250451Z 00000KT 10SM CLR 21/11 A2983 RMK AO2 SLP108 T02060106 403000178

Closest aviation forecast (TAF) to Teterboro Airport

Forecast is more than 6 hours old.

Closest forecast is Muir Army Air Field (Fort Indiantown Gap) Airport, 116.9 nm (216.6 km) WSW.

2024/05/24 17:45 Ammendment (retrieved 12 hours ago)

AMD KMUI 241730Z 2417/2517 30006KT 9999 FEW040 QNH2983INS BECMG 2500/2501 20005KT 9999 SKC QNH2983INS TX28/2420Z TN14/2510Z LAST NO AMDS AFT 2418 NEXT 2811